Time;durP1;ratioP1;P1;durP2;ratioP2;P2;SDS_P1;SDS_P2;PMS_P1;PMS_P2;Temp;Humidity;BMP_temperature;BMP_pressure;BME280_temperature;BME280_humidity;BME280_pressure;Samples;Min_cycle;Max_cycle;Signal;HPM_P1;HPM_P2
2023/12/18 00:01:24;;;;;;;11.17;10.07;;;;;;;21.37;31.05;96869.50;6150190;28;111652;-61
2023/12/18 00:04:27;;;;;;;9.80;8.90;;;;;;;21.37;31.13;96866.84;6153570;28;108978;-62
2023/12/18 00:07:31;;;;;;;10.23;9.33;;;;;;;21.36;30.75;96886.53;6157301;28;109169;-62
2023/12/18 00:10:34;;;;;;;10.93;9.83;;;;;;;21.37;30.88;96885.47;6153349;28;111211;-61
2023/12/18 00:13:37;;;;;;;10.63;9.73;;;;;;;21.38;31.05;96884.41;6150927;28;109535;-62
2023/12/18 00:16:40;;;;;;;10.17;9.17;;;;;;;21.36;30.66;96875.06;6159954;28;110121;-61
2023/12/18 00:19:43;;;;;;;10.23;9.33;;;;;;;21.36;30.99;96875.88;6144569;28;110303;-61
2023/12/18 00:22:48;;;;;;;9.93;9.03;;;;;;;21.35;31.00;96866.28;6158291;28;109094;-61
2023/12/18 00:25:51;;;;;;;10.50;9.60;;;;;;;21.35;30.95;96860.97;6140527;28;110495;-61
2023/12/18 00:28:54;;;;;;;11.13;10.13;;;;;;;21.36;30.91;96865.22;6141787;28;109422;-61
2023/12/18 00:31:57;;;;;;;9.10;8.37;;;;;;;21.35;30.70;96868.16;6158661;28;109124;-61
2023/12/18 00:35:00;;;;;;;9.60;8.70;;;;;;;21.36;30.95;96859.09;6139736;28;109161;-60
2023/12/18 00:38:05;;;;;;;8.60;7.73;;;;;;;21.34;30.98;96854.03;6150454;28;109042;-61
2023/12/18 00:41:08;;;;;;;9.63;8.83;;;;;;;21.34;30.79;96854.03;6155896;28;109283;-61
2023/12/18 00:44:12;;;;;;;8.37;7.67;;;;;;;21.34;30.61;96843.38;6153388;28;111321;-62
2023/12/18 00:47:15;;;;;;;8.70;7.90;;;;;;;21.34;30.52;96838.06;6139820;28;109888;-61
2023/12/18 00:50:18;;;;;;;8.80;8.00;;;;;;;21.35;30.99;96842.31;6157672;28;109480;-61
2023/12/18 00:53:23;;;;;;;9.30;8.50;;;;;;;21.35;30.66;96850.31;6146418;28;109036;-61
2023/12/18 00:56:26;;;;;;;9.33;8.43;;;;;;;21.35;30.48;96846.84;6156337;28;109046;-61
2023/12/18 00:59:29;;;;;;;8.87;8.00;;;;;;;21.34;30.25;96846.03;6143623;28;111697;-62
2023/12/18 01:02:32;;;;;;;8.30;7.60;;;;;;;21.34;30.79;96846.03;6154581;28;109113;-62
2023/12/18 01:05:35;;;;;;;8.73;8.03;;;;;;;21.34;30.27;96837.22;6150586;28;109479;-61
2023/12/18 01:08:39;;;;;;;9.17;8.37;;;;;;;21.30;30.81;96834.28;6153447;28;111201;-61
2023/12/18 01:11:43;;;;;;;8.53;7.73;;;;;;;21.25;30.66;96830.78;6146686;28;109211;-61
2023/12/18 01:14:46;;;;;;;9.20;8.30;;;;;;;21.20;30.78;96828.91;6156289;28;109134;-61
2023/12/18 01:17:49;;;;;;;9.23;8.33;;;;;;;21.18;31.14;96823.84;6159590;28;111506;-61
2023/12/18 01:20:52;;;;;;;9.80;8.30;;;;;;;21.17;31.59;96819.56;6145859;28;109808;-61
2023/12/18 01:23:56;;;;;;;8.63;7.73;;;;;;;21.16;30.85;96819.81;6155987;28;109701;-61
2023/12/18 01:26:59;;;;;;;8.20;7.50;;;;;;;21.15;31.09;96812.88;6159200;28;109420;-62
2023/12/18 01:30:03;;;;;;;8.70;7.90;;;;;;;21.15;30.71;96808.34;6154618;28;109184;-61
2023/12/18 01:33:06;;;;;;;9.37;8.47;;;;;;;21.15;31.17;96807.56;6141726;28;110319;-61
2023/12/18 01:36:09;;;;;;;8.70;7.70;;;;;;;21.14;31.02;96804.09;6158917;28;109212;-61
2023/12/18 01:39:14;;;;;;;8.37;7.57;;;;;;;21.14;30.86;96797.97;6157564;28;109558;-61
2023/12/18 01:42:18;;;;;;;10.13;8.10;;;;;;;21.13;30.99;96788.38;6159120;28;109166;-62
2023/12/18 01:45:21;;;;;;;7.90;6.90;;;;;;;21.12;30.89;96789.44;6149670;28;108941;-61
2023/12/18 01:48:25;;;;;;;8.37;7.20;;;;;;;21.11;30.91;96775.31;6159053;28;110495;-62
2023/12/18 01:51:30;;;;;;;7.07;6.47;;;;;;;21.12;31.01;96784.09;6159880;28;109626;-61
2023/12/18 01:54:35;;;;;;;7.20;6.50;;;;;;;21.10;30.98;96780.91;6150661;28;109242;-61
2023/12/18 01:57:38;;;;;;;7.93;7.23;;;;;;;21.10;30.97;96776.38;6156500;28;108991;-61
2023/12/18 02:00:42;;;;;;;7.07;6.47;;;;;;;21.09;31.11;96773.97;6155809;28;109501;-61
2023/12/18 02:03:46;;;;;;;7.43;6.77;;;;;;;21.08;31.21;96781.16;6154581;28;109357;-62
2023/12/18 02:06:50;;;;;;;7.73;7.00;;;;;;;21.08;30.94;96781.16;6133188;28;109449;-61
2023/12/18 02:09:55;;;;;;;7.67;6.97;;;;;;;21.07;31.06;96781.41;6162284;28;110555;-61
2023/12/18 02:12:58;;;;;;;6.93;6.33;;;;;;;21.07;30.70;96786.75;6159335;28;109438;-61
2023/12/18 02:16:01;;;;;;;6.57;5.97;;;;;;;21.07;30.76;96786.75;6144622;28;109377;-61
2023/12/18 02:19:04;;;;;;;6.90;6.30;;;;;;;21.07;30.80;96778.75;6153915;28;109438;-62
2023/12/18 02:22:07;;;;;;;6.87;6.27;;;;;;;21.07;30.66;96776.91;6156368;28;109208;-61
2023/12/18 02:25:12;;;;;;;6.83;6.13;;;;;;;21.07;30.89;96778.75;6162546;28;109217;-61
2023/12/18 02:28:17;;;;;;;7.03;6.33;;;;;;;21.06;30.94;96775.28;6159462;28;109279;-61
2023/12/18 02:31:20;;;;;;;7.23;6.63;;;;;;;21.06;30.86;96769.97;6156221;28;110028;-61
2023/12/18 02:34:23;;;;;;;6.87;6.27;;;;;;;21.05;30.75;96760.38;6162141;28;109029;-61
2023/12/18 02:37:27;;;;;;;6.30;5.70;;;;;;;21.05;30.66;96768.38;6162130;28;109275;-61
2023/12/18 02:40:32;;;;;;;6.50;5.90;;;;;;;21.05;30.71;96765.72;6151587;28;109591;-61
2023/12/18 02:43:35;;;;;;;6.63;6.03;;;;;;;21.05;30.77;96764.91;6159138;28;109234;-61
2023/12/18 02:46:38;;;;;;;6.77;6.17;;;;;;;21.03;30.44;96765.13;6148848;28;109033;-61
2023/12/18 02:49:41;;;;;;;6.67;5.97;;;;;;;21.03;30.96;96759.00;6161772;28;109429;-62
2023/12/18 02:52:44;;;;;;;6.67;6.07;;;;;;;21.02;30.89;96760.06;6131941;28;109104;-61
2023/12/18 02:55:49;;;;;;;6.43;5.77;;;;;;;21.02;30.57;96774.19;6149325;28;109608;-61
2023/12/18 02:58:52;;;;;;;6.33;5.57;;;;;;;21.01;30.65;96769.91;6162137;28;109797;-62
2023/12/18 03:01:55;;;;;;;6.30;5.70;;;;;;;21.01;30.49;96771.78;6162255;28;110131;-61
2023/12/18 03:04:58;;;;;;;6.30;5.70;;;;;;;21.02;30.76;96773.38;6137128;28;109478;-61
2023/12/18 03:08:01;;;;;;;6.30;5.70;;;;;;;21.01;31.04;96769.91;6160043;28;109173;-62
2023/12/18 03:11:05;;;;;;;6.00;5.40;;;;;;;21.00;30.27;96770.16;6148320;28;109500;-60
2023/12/18 03:14:09;;;;;;;7.40;6.53;;;;;;;21.01;30.93;96769.13;6141775;28;110532;-60
2023/12/18 03:17:12;;;;;;;6.20;5.60;;;;;;;21.01;31.07;96769.13;6152836;28;109098;-61
2023/12/18 03:20:15;;;;;;;6.77;5.90;;;;;;;21.00;30.30;96768.28;6147945;28;110164;-60
2023/12/18 03:23:18;;;;;;;6.20;5.60;;;;;;;21.01;30.66;96774.44;6148733;28;109498;-61
2023/12/18 03:26:22;;;;;;;6.53;5.90;;;;;;;21.00;30.77;96762.97;6141978;28;109012;-61
2023/12/18 03:29:25;;;;;;;6.47;5.87;;;;;;;21.00;30.52;96781.59;6150419;28;109617;-61
2023/12/18 03:32:28;;;;;;;5.70;5.17;;;;;;;21.00;30.96;96767.50;6160249;28;110807;-61
2023/12/18 03:35:31;;;;;;;6.20;5.60;;;;;;;21.00;30.24;96764.81;6155763;28;109244;-61
2023/12/18 03:38:34;;;;;;;6.63;5.93;;;;;;;20.99;30.50;96763.22;6149299;28;109138;-61
2023/12/18 03:41:39;;;;;;;6.33;5.73;;;;;;;20.99;30.64;96755.25;6153248;28;110262;-61
2023/12/18 03:44:43;;;;;;;6.70;6.00;;;;;;;20.98;30.88;96756.31;6147616;28;109297;-60
2023/12/18 03:47:46;;;;;;;5.93;5.43;;;;;;;20.98;30.53;96756.31;6149127;28;110279;-61
2023/12/18 03:50:50;;;;;;;5.50;5.00;;;;;;;20.98;30.26;96756.31;6148878;28;110884;-61
2023/12/18 03:53:53;;;;;;;5.80;5.30;;;;;;;20.98;30.70;96751.78;6148026;28;109978;-61
2023/12/18 03:56:57;;;;;;;6.30;5.70;;;;;;;20.96;30.41;96747.78;6147741;28;109059;-61
2023/12/18 04:00:00;;;;;;;5.27;4.77;;;;;;;20.96;30.43;96745.91;6137095;28;109260;-61
2023/12/18 04:03:04;;;;;;;5.63;5.13;;;;;;;20.97;30.23;96758.16;6154634;28;109312;-61
2023/12/18 04:06:08;;;;;;;6.10;5.53;;;;;;;21.04;29.95;96749.97;6148630;28;110098;-61
2023/12/18 04:09:11;;;;;;;6.17;5.57;;;;;;;21.07;29.62;96754.81;6149347;28;108894;-61
2023/12/18 04:12:16;;;;;;;5.53;4.90;;;;;;;21.07;29.75;96766.25;6150659;28;109221;-61
2023/12/18 04:15:19;;;;;;;6.73;5.17;;;;;;;21.10;29.65;96770.25;6156738;28;109263;-61
2023/12/18 04:18:22;;;;;;;5.90;5.33;;;;;;;21.14;29.63;96771.34;6160244;28;109286;-61
2023/12/18 04:21:25;;;;;;;5.07;4.57;;;;;;;21.12;30.11;96776.13;6147645;28;110042;-61
2023/12/18 04:24:28;;;;;;;5.80;5.10;;;;;;;21.15;30.08;96773.75;6138510;28;109662;-61
2023/12/18 04:27:33;;;;;;;6.93;4.77;;;;;;;21.13;30.14;96770.53;6138166;28;112016;-61
2023/12/18 04:30:36;;;;;;;6.63;4.93;;;;;;;21.11;30.14;96771.84;6152468;28;109192;-61
2023/12/18 04:33:39;;;;;;;8.07;4.80;;;;;;;21.13;30.04;96762.56;6140608;28;109080;-62
2023/12/18 04:36:45;;;;;;;5.53;4.70;;;;;;;21.11;30.38;96761.22;6147002;28;110232;-62
2023/12/18 04:39:50;;;;;;;6.60;4.83;;;;;;;21.08;30.18;96756.41;6146036;28;110331;-62
2023/12/18 04:42:55;;;;;;;7.20;5.20;;;;;;;21.06;30.63;96758.53;6149789;28;109014;-63
2023/12/18 04:46:00;;;;;;;5.73;4.97;;;;;;;21.06;30.40;96762.00;6144457;28;110952;-62
2023/12/18 04:49:04;;;;;;;6.43;4.77;;;;;;;21.08;30.52;96757.22;6151439;28;109448;-63
2023/12/18 04:52:08;;;;;;;8.10;4.87;;;;;;;21.14;30.36;96766.81;6145916;28;108905;-62
2023/12/18 04:55:11;;;;;;;9.40;4.90;;;;;;;21.10;30.40;96764.94;6143204;28;109311;-63
2023/12/18 04:58:15;;;;;;;8.10;5.20;;;;;;;21.03;31.17;96757.16;6131328;28;111407;-63
2023/12/18 05:01:18;;;;;;;8.13;5.13;;;;;;;21.02;30.49;96768.84;6142938;28;108667;-62
2023/12/18 05:04:21;;;;;;;8.73;5.10;;;;;;;21.03;30.76;96774.97;6149582;28;109019;-63
2023/12/18 05:07:26;;;;;;;8.30;5.40;;;;;;;21.02;30.89;96763.53;6153986;28;110470;-62
2023/12/18 05:10:29;;;;;;;9.90;6.40;;;;;;;21.08;30.74;96765.19;6149846;28;110885;-62
2023/12/18 05:13:34;;;;;;;7.37;5.80;;;;;;;21.20;30.84;96757.81;6161250;28;109183;-63
2023/12/18 05:16:37;;;;;;;7.10;5.50;;;;;;;21.27;31.07;96770.09;6158726;28;109245;-63
2023/12/18 05:19:40;;;;;;;6.40;5.70;;;;;;;21.35;31.06;96765.09;6149860;28;109466;-63
2023/12/18 05:22:43;;;;;;;7.80;6.00;;;;;;;21.35;30.82;96757.09;6160795;28;109743;-63
2023/12/18 05:25:46;;;;;;;7.23;5.10;;;;;;;21.29;30.07;96763.44;6144183;28;109021;-63
2023/12/18 05:28:51;;;;;;;6.53;4.97;;;;;;;21.24;30.18;96754.63;6137913;28;109179;-63
2023/12/18 05:31:54;;;;;;;11.40;5.70;;;;;;;21.18;30.17;96757.28;6150418;28;109020;-62
2023/12/18 05:34:57;;;;;;;5.93;5.40;;;;;;;21.16;30.46;96759.38;6151805;28;110814;-63
2023/12/18 05:38:00;;;;;;;7.73;5.20;;;;;;;21.15;30.18;96757.78;6136254;28;108935;-63
2023/12/18 05:41:03;;;;;;;6.80;6.17;;;;;;;21.13;30.09;96749.25;6135710;28;112515;-63
2023/12/18 05:44:08;;;;;;;7.83;5.63;;;;;;;21.12;30.01;96750.31;6128404;28;110607;-63
2023/12/18 05:47:11;;;;;;;5.90;5.30;;;;;;;21.12;30.35;96752.16;6160663;28;109653;-63
2023/12/18 05:50:14;;;;;;;6.57;5.67;;;;;;;21.13;30.25;96754.56;6149408;28;109297;-63
2023/12/18 05:53:17;;;;;;;6.70;6.00;;;;;;;21.12;29.95;96760.16;6130594;28;109032;-62
2023/12/18 05:56:20;;;;;;;7.33;6.63;;;;;;;21.13;30.26;96756.44;6133854;28;109185;-63
2023/12/18 05:59:25;;;;;;;6.70;6.10;;;;;;;21.08;30.11;96749.22;6136402;28;109338;-63
2023/12/18 06:02:28;;;;;;;7.10;6.40;;;;;;;21.07;30.14;96752.16;6136365;28;109148;-63
2023/12/18 06:05:31;;;;;;;6.90;6.20;;;;;;;21.07;29.88;96768.91;6139193;28;109224;-63
2023/12/18 06:08:34;;;;;;;6.97;6.37;;;;;;;21.08;30.42;96765.19;6160038;28;109049;-62
2023/12/18 06:11:37;;;;;;;6.30;5.70;;;;;;;21.09;30.09;96768.66;6159383;28;109284;-62
2023/12/18 06:14:41;;;;;;;7.17;6.57;;;;;;;21.09;30.19;96768.66;6160626;28;109418;-62
2023/12/18 06:17:45;;;;;;;7.70;6.93;;;;;;;21.05;30.25;96770.22;6149911;28;109266;-63
2023/12/18 06:20:49;;;;;;;7.37;6.67;;;;;;;21.04;30.30;96773.94;6145984;28;109138;-63
2023/12/18 06:23:52;;;;;;;8.10;7.30;;;;;;;21.03;29.98;96769.66;6136145;28;109320;-63
2023/12/18 06:26:55;;;;;;;8.00;7.20;;;;;;;21.03;30.37;96767.00;6131795;28;109627;-63
2023/12/18 06:30:00;;;;;;;7.93;7.07;;;;;;;21.03;30.04;96772.31;6137245;28;109224;-62
2023/12/18 06:33:03;;;;;;;6.87;6.27;;;;;;;21.02;30.16;96776.84;6160390;28;109281;-62
2023/12/18 06:36:07;;;;;;;7.00;6.40;;;;;;;21.02;29.96;96760.06;6141616;28;108994;-63
2023/12/18 06:39:11;;;;;;;6.63;6.03;;;;;;;21.03;30.03;96765.13;6125900;28;109442;-62
2023/12/18 06:42:14;;;;;;;8.20;7.30;;;;;;;21.04;30.00;96768.59;6135273;28;109102;-64
2023/12/18 06:45:18;;;;;;;7.30;6.70;;;;;;;21.04;29.69;96756.09;6135629;28;109277;-64
2023/12/18 06:48:22;;;;;;;7.47;6.77;;;;;;;21.05;29.76;96756.94;6135734;28;108892;-63
2023/12/18 06:51:25;;;;;;;6.80;6.20;;;;;;;21.05;29.80;96754.25;6128263;28;109874;-63
2023/12/18 06:54:28;;;;;;;7.40;6.70;;;;;;;21.03;30.23;96749.16;6140093;28;108858;-63
2023/12/18 06:57:31;;;;;;;7.70;7.00;;;;;;;21.11;29.61;96747.91;6140253;28;109392;-63
2023/12/18 07:00:36;;;;;;;7.90;7.10;;;;;;;21.61;29.54;96755.34;6139921;28;109147;-63
2023/12/18 07:03:43;;;;;;;7.37;6.67;;;;;;;21.98;29.02;96762.44;6140356;28;110268;-63
2023/12/18 07:06:47;;;;;;;7.87;7.17;;;;;;;22.07;28.90;96769.66;6163031;28;111766;-64
2023/12/18 07:09:50;;;;;;;8.03;7.27;;;;;;;22.14;28.80;96757.94;6162815;28;109108;-63
2023/12/18 07:12:54;;;;;;;8.00;7.30;;;;;;;22.08;28.51;96765.94;6152273;28;108989;-62
2023/12/18 07:15:58;;;;;;;8.10;7.40;;;;;;;22.26;27.99;96769.16;6162840;28;108969;-62
2023/12/18 07:19:02;;;;;;;7.57;6.87;;;;;;;22.35;28.16;96770.25;6163298;28;109212;-61
2023/12/18 07:22:05;;;;;;;8.00;7.30;;;;;;;22.29;28.06;96765.97;6163502;28;110142;-62
2023/12/18 07:25:09;;;;;;;8.20;7.50;;;;;;;22.08;28.32;96770.47;6147299;28;110571;-62
2023/12/18 07:28:12;;;;;;;7.83;7.20;;;;;;;21.98;29.07;96770.41;6138980;28;109588;-61
2023/12/18 07:31:17;;;;;;;8.07;7.00;;;;;;;21.87;29.04;96766.94;6139624;28;112403;-61
2023/12/18 07:34:21;;;;;;;8.23;7.53;;;;;;;21.81;28.79;96760.75;6132511;28;109067;-61
2023/12/18 07:37:24;;;;;;;9.13;8.33;;;;;;;21.80;28.80;96769.00;6159790;28;109372;-61
2023/12/18 07:40:27;;;;;;;8.13;7.43;;;;;;;21.80;29.48;96769.00;6155396;28;109449;-62
2023/12/18 07:43:31;;;;;;;8.40;7.70;;;;;;;21.78;28.96;96763.94;6138025;28;109197;-63
2023/12/18 07:46:35;;;;;;;8.77;7.97;;;;;;;21.77;29.10;96764.19;6129121;28;109232;-61
2023/12/18 07:49:38;;;;;;;8.57;7.77;;;;;;;21.77;29.34;96754.34;6138963;28;109150;-62
2023/12/18 07:52:43;;;;;;;8.80;8.00;;;;;;;21.75;29.58;96761.81;6162623;28;109139;-63
2023/12/18 07:55:47;;;;;;;8.67;7.87;;;;;;;21.74;29.22;96760.19;6162844;28;109081;-62
2023/12/18 07:58:50;;;;;;;8.90;8.10;;;;;;;21.73;29.41;96758.59;6152701;28;111897;-62
2023/12/18 08:01:54;;;;;;;8.20;7.47;;;;;;;21.72;29.40;96757.00;6161923;28;109175;-62
2023/12/18 08:04:57;;;;;;;8.70;7.97;;;;;;;21.71;29.64;96749.28;6160158;28;109063;-62
2023/12/18 08:08:00;;;;;;;8.93;8.13;;;;;;;21.70;29.54;96761.00;6133729;28;109540;-62
2023/12/18 08:11:04;;;;;;;8.77;7.97;;;;;;;21.67;29.66;96750.81;6133202;28;109180;-62
2023/12/18 08:14:07;;;;;;;9.00;8.10;;;;;;;21.65;29.77;96756.41;6137592;28;109594;-62
2023/12/18 08:17:12;;;;;;;7.83;7.20;;;;;;;21.64;29.49;96756.69;6137946;28;109391;-61
2023/12/18 08:20:16;;;;;;;8.87;8.07;;;;;;;21.62;29.66;96750.81;6127828;28;109550;-61
2023/12/18 08:23:19;;;;;;;8.57;7.77;;;;;;;21.62;29.51;96753.47;6138501;28;110104;-62
2023/12/18 08:26:22;;;;;;;8.93;8.13;;;;;;;21.62;29.65;96750.81;6137972;28;109231;-62
2023/12/18 08:29:25;;;;;;;9.00;8.20;;;;;;;21.61;29.60;96754.53;6138120;28;109187;-62
2023/12/18 08:32:30;;;;;;;8.70;8.00;;;;;;;21.62;29.89;96756.16;6127070;28;109289;-63
2023/12/18 08:35:33;;;;;;;8.73;7.93;;;;;;;21.62;29.39;96748.94;6149861;28;109361;-63
2023/12/18 08:38:36;;;;;;;9.23;8.43;;;;;;;21.64;29.59;96756.69;6161358;28;109183;-63
2023/12/18 08:41:41;;;;;;;8.60;7.90;;;;;;;21.61;29.44;96749.22;6162182;28;109104;-63
2023/12/18 08:44:44;;;;;;;8.60;7.90;;;;;;;21.61;29.77;96749.22;6150363;28;109255;-63
2023/12/18 08:47:48;;;;;;;9.50;8.60;;;;;;;21.59;29.89;96756.66;6138904;28;109664;-62
2023/12/18 08:50:51;;;;;;;10.23;9.33;;;;;;;21.57;29.46;96751.59;6137707;28;109088;-62
2023/12/18 08:53:55;;;;;;;9.30;8.50;;;;;;;21.56;29.59;96752.66;6130884;28;109609;-62
2023/12/18 08:56:58;;;;;;;9.67;8.77;;;;;;;21.56;29.85;96749.22;6135607;28;109119;-63
2023/12/18 09:00:04;;;;;;;10.23;9.23;;;;;;;21.56;29.79;96743.88;6137619;28;109105;-63
2023/12/18 09:03:09;;;;;;;10.57;9.67;;;;;;;21.55;29.63;96750.28;6137496;28;109484;-63
2023/12/18 09:06:12;;;;;;;10.83;9.93;;;;;;;21.54;29.76;96746.81;6127030;28;111616;-62
2023/12/18 09:09:15;;;;;;;11.23;9.57;;;;;;;21.55;29.75;96742.28;6137000;28;109523;-62
2023/12/18 09:12:18;;;;;;;11.60;10.47;;;;;;;21.55;29.92;96735.09;6137602;28;109517;-63
2023/12/18 09:15:22;;;;;;;11.43;10.43;;;;;;;21.55;29.68;96734.28;6135859;28;110219;-62
2023/12/18 09:18:26;;;;;;;10.93;10.03;;;;;;;21.51;29.96;96728.69;6126839;28;109851;-62
2023/12/18 09:21:29;;;;;;;13.23;11.97;;;;;;;21.51;30.06;96734.00;6147438;28;109136;-62
2023/12/18 09:24:32;;;;;;;13.60;12.50;;;;;;;21.54;29.87;96722.03;6161186;28;109212;-62
2023/12/18 09:27:36;;;;;;;14.50;13.30;;;;;;;21.55;30.08;96718.31;6156693;28;109737;-61
2023/12/18 09:30:40;;;;;;;15.77;14.37;;;;;;;21.55;29.94;96710.31;6154990;28;109189;-64
2023/12/18 09:33:45;;;;;;;17.13;15.50;;;;;;;21.50;29.83;96711.88;6161142;28;109081;-62
2023/12/18 09:36:49;;;;;;;20.60;18.60;;;;;;;21.45;29.02;96708.41;6148362;28;109393;-62
2023/12/18 09:39:52;;;;;;;20.40;18.60;;;;;;;21.46;28.67;96694.81;6126287;28;110125;-61
2023/12/18 09:42:55;;;;;;;17.97;16.47;;;;;;;21.52;29.27;96693.78;6157734;28;109891;-62
2023/12/18 09:45:59;;;;;;;16.70;15.20;;;;;;;21.57;29.36;96689.53;6155326;28;110705;-63
2023/12/18 09:49:03;;;;;;;16.93;15.43;;;;;;;21.59;29.69;96679.41;6136826;28;110027;-63
2023/12/18 09:52:08;;;;;;;16.13;14.63;;;;;;;21.62;29.63;96678.88;6125471;28;111722;-62
2023/12/18 09:55:11;;;;;;;16.73;15.23;;;;;;;21.62;29.60;96668.22;6136838;28;109209;-62
2023/12/18 09:58:15;;;;;;;17.17;15.50;;;;;;;21.62;29.55;96671.69;6159598;28;109964;-63
2023/12/18 10:01:18;;;;;;;17.20;15.67;;;;;;;21.63;29.41;96672.50;6153693;28;109130;-63
2023/12/18 10:04:23;;;;;;;17.07;15.57;;;;;;;21.61;29.70;96674.63;6128068;28;110649;-63
2023/12/18 10:07:26;;;;;;;14.90;13.50;;;;;;;21.56;29.77;96667.44;6144837;28;109185;-64
2023/12/18 10:10:29;;;;;;;17.00;15.40;;;;;;;21.54;29.70;96666.91;6136303;28;110319;-64
2023/12/18 10:13:35;;;;;;;17.20;15.60;;;;;;;21.52;29.83;96663.69;6127403;28;109924;-63
2023/12/18 10:16:40;;;;;;;16.77;15.07;;;;;;;21.52;29.63;96661.84;6143493;28;108940;-63
2023/12/18 10:19:45;;;;;;;17.60;16.00;;;;;;;21.51;29.65;96649.56;6160363;28;110269;-63
2023/12/18 10:22:48;;;;;;;15.10;13.80;;;;;;;21.52;29.91;96664.50;6161062;28;112167;-63
2023/12/18 10:25:52;;;;;;;16.50;15.00;;;;;;;21.58;29.94;96654.66;6149183;28;109346;-63
2023/12/18 10:28:55;;;;;;;16.03;14.60;;;;;;;21.59;29.92;96648.25;6140307;28;109099;-63
2023/12/18 10:31:59;;;;;;;15.80;14.20;;;;;;;21.59;29.69;96645.59;6140632;28;111238;-63
2023/12/18 10:35:04;;;;;;;16.43;15.03;;;;;;;21.62;30.09;96638.94;6146706;28;108669;-63
2023/12/18 10:38:09;;;;;;;16.30;14.90;;;;;;;21.62;29.95;96633.59;6135760;28;109330;-63
2023/12/18 10:41:14;;;;;;;17.40;15.90;;;;;;;21.64;29.57;96636.81;6164383;28;109068;-63
2023/12/18 10:44:18;;;;;;;16.60;15.20;;;;;;;21.64;29.54;96626.13;6164644;28;110111;-62
2023/12/18 10:47:22;;;;;;;16.10;14.70;;;;;;;21.64;29.90;96621.63;6157669;28;109092;-61
2023/12/18 10:50:31;;;;;;;15.97;14.63;;;;;;;21.62;29.89;96613.09;6159471;28;110345;-63
2023/12/18 10:53:36;;;;;;;15.93;14.50;;;;;;;21.65;29.74;96603.75;6164188;28;108866;-63
2023/12/18 10:56:41;;;;;;;16.83;15.33;;;;;;;21.65;29.81;96609.09;6163640;28;109208;-64
2023/12/18 10:59:50;;;;;;;16.17;14.77;;;;;;;21.65;30.01;96595.78;6154346;28;112506;-63
2023/12/18 11:02:55;;;;;;;16.97;15.47;;;;;;;21.64;29.88;96584.31;6163997;28;109232;-62
2023/12/18 11:06:01;;;;;;;17.00;15.50;;;;;;;21.64;30.02;96572.88;6163467;28;109739;-62
2023/12/18 11:09:04;;;;;;;16.33;14.93;;;;;;;21.66;29.84;96573.41;6145673;28;109384;-62
2023/12/18 11:12:08;;;;;;;15.67;14.23;;;;;;;21.66;30.04;96571.53;6142800;28;109183;-61
2023/12/18 11:15:21;;;;;;;16.17;14.77;;;;;;;21.64;29.79;96562.22;6139579;28;110357;-62
2023/12/18 11:18:36;;;;;;;16.93;15.43;;;;;;;21.62;29.71;96557.16;6138969;28;109151;-62
2023/12/18 11:21:42;;;;;;;15.70;14.40;;;;;;;21.62;30.21;96548.34;6136806;28;109488;-62
2023/12/18 11:24:46;;;;;;;16.40;14.90;;;;;;;21.58;29.65;96545.44;6162510;28;109246;-63
2023/12/18 11:27:52;;;;;;;16.57;15.07;;;;;;;21.57;29.92;96540.38;6163179;28;109401;-63
2023/12/18 11:31:01;;;;;;;15.33;14.10;;;;;;;21.55;30.68;96542.50;6163613;28;110042;-63
2023/12/18 11:34:05;;;;;;;16.93;15.43;;;;;;;21.55;29.90;96545.16;6128427;28;110295;-63
2023/12/18 11:37:13;;;;;;;16.97;15.40;;;;;;;21.55;30.17;96539.84;6159810;28;109358;-63
2023/12/18 11:40:36;;;;;;;16.20;14.70;;;;;;;21.52;30.18;96533.97;6163098;28;109058;-62
2023/12/18 11:43:41;;;;;;;16.80;15.30;;;;;;;21.52;29.74;96528.66;6160030;28;109269;-62
2023/12/18 11:46:44;;;;;;;15.70;14.30;;;;;;;21.51;30.09;96531.59;6152885;28;109251;-63
2023/12/18 11:49:47;;;;;;;15.77;14.40;;;;;;;21.55;30.07;96531.84;6138354;28;109246;-63
2023/12/18 11:52:55;;;;;;;16.50;15.00;;;;;;;21.54;29.95;96528.38;6139131;28;109171;-63
2023/12/18 11:55:58;;;;;;;15.57;13.97;;;;;;;21.55;29.93;96532.66;6128976;28;110363;-63
2023/12/18 11:59:03;;;;;;;16.47;14.97;;;;;;;21.54;29.92;96525.72;6161582;28;109269;-63
2023/12/18 12:02:07;;;;;;;16.10;14.70;;;;;;;21.55;29.79;96529.19;6156330;28;110424;-63
2023/12/18 12:05:10;;;;;;;16.27;14.80;;;;;;;21.52;30.29;96522.53;6144514;28;109145;-62
2023/12/18 12:08:15;;;;;;;17.00;15.50;;;;;;;21.49;30.33;96513.19;6136682;28;111881;-62
2023/12/18 12:11:18;;;;;;;15.97;14.57;;;;;;;21.48;30.44;96516.09;6138423;28;109411;-63
2023/12/18 12:14:22;;;;;;;16.90;15.30;;;;;;;21.46;30.24;96507.59;6138533;28;109133;-64
2023/12/18 12:17:25;;;;;;;15.67;14.37;;;;;;;21.46;30.16;96502.25;6138121;28;109318;-63
2023/12/18 12:20:28;;;;;;;16.77;15.33;;;;;;;21.44;30.65;96491.88;6127559;28;109540;-63
2023/12/18 12:23:32;;;;;;;16.17;14.67;;;;;;;21.45;30.52;96490.81;6138369;28;109272;-63
2023/12/18 12:26:36;;;;;;;16.10;14.60;;;;;;;21.45;30.61;96490.81;6138688;28;112015;-63
2023/12/18 12:29:39;;;;;;;16.87;15.27;;;;;;;21.45;30.22;96480.16;6133661;28;109336;-62
2023/12/18 12:32:47;;;;;;;16.37;14.87;;;;;;;21.46;30.21;96481.75;6136075;28;108823;-62
2023/12/18 12:35:53;;;;;;;17.10;15.50;;;;;;;21.45;30.34;96480.16;6137969;28;109353;-63
2023/12/18 12:38:57;;;;;;;16.67;15.20;;;;;;;21.46;30.18;96476.44;6157111;28;109250;-63
2023/12/18 12:42:00;;;;;;;16.47;14.93;;;;;;;21.48;30.47;96470.84;6151237;28;109356;-63
2023/12/18 12:45:05;;;;;;;16.70;15.20;;;;;;;21.46;30.26;96465.78;6162112;28;109496;-63
2023/12/18 12:48:09;;;;;;;16.20;14.80;;;;;;;21.47;30.60;96455.91;6148785;28;109298;-62
2023/12/18 12:51:14;;;;;;;17.20;15.60;;;;;;;21.47;30.56;96450.59;6136792;28;109190;-63
2023/12/18 12:54:20;;;;;;;16.93;15.53;;;;;;;21.48;30.52;96452.19;6129993;28;109246;-62
2023/12/18 12:57:23;;;;;;;17.10;15.30;;;;;;;21.48;30.17;96450.31;6155915;28;111895;-63
2023/12/18 13:00:26;;;;;;;17.53;15.93;;;;;;;21.48;30.27;96446.88;6155257;28;109464;-63
2023/12/18 13:03:32;;;;;;;17.70;16.00;;;;;;;21.47;30.29;96451.41;6141916;28;109082;-62
2023/12/18 13:06:35;;;;;;;17.23;15.73;;;;;;;21.47;30.15;96445.28;6149229;28;110352;-62
2023/12/18 13:09:40;;;;;;;17.00;15.40;;;;;;;21.45;30.48;96445.53;6161105;28;111854;-63
2023/12/18 13:12:43;;;;;;;16.87;15.37;;;;;;;21.44;30.38;96446.59;6161212;28;109319;-62
2023/12/18 13:15:47;;;;;;;17.40;15.87;;;;;;;21.44;30.71;96438.63;6151119;28;108872;-62
2023/12/18 13:18:51;;;;;;;16.63;15.20;;;;;;;21.43;30.57;96450.34;6160929;28;109083;-63
2023/12/18 13:21:54;;;;;;;17.00;15.50;;;;;;;21.44;30.27;96445.81;6160325;28;109080;-62
2023/12/18 13:24:59;;;;;;;18.30;16.60;;;;;;;21.41;30.62;96438.34;6161055;28;109055;-62
2023/12/18 13:28:02;;;;;;;15.87;14.50;;;;;;;21.48;30.70;96441.53;6139620;28;109414;-63
2023/12/18 13:31:06;;;;;;;17.60;16.00;;;;;;;21.46;30.51;96439.16;6136923;28;110133;-63
2023/12/18 13:34:09;;;;;;;16.40;14.90;;;;;;;21.47;30.54;96446.06;6137222;28;109499;-62
2023/12/18 13:37:13;;;;;;;16.07;14.67;;;;;;;21.47;30.41;96445.28;6135446;28;109062;-62
2023/12/18 13:40:18;;;;;;;16.60;15.00;;;;;;;21.48;30.63;96457.50;6129889;28;110496;-63
2023/12/18 13:43:22;;;;;;;16.20;14.77;;;;;;;21.51;30.32;96452.47;6152810;28;109124;-63
2023/12/18 13:46:25;;;;;;;17.67;15.97;;;;;;;21.49;30.44;96448.47;6160958;28;110176;-63
2023/12/18 13:49:28;;;;;;;17.30;15.80;;;;;;;21.47;30.61;96451.41;6130384;28;110043;-62
2023/12/18 13:52:31;;;;;;;16.20;14.80;;;;;;;21.48;30.43;96453.00;6135573;28;109196;-62
2023/12/18 13:55:36;;;;;;;17.13;15.60;;;;;;;21.46;30.64;96446.34;6136487;28;109163;-63
2023/12/18 13:58:39;;;;;;;15.80;14.40;;;;;;;21.46;30.52;96439.16;6149455;28;109151;-62
2023/12/18 14:01:44;;;;;;;17.10;15.47;;;;;;;21.45;30.71;96450.88;6150123;28;110085;-62
2023/12/18 14:04:47;;;;;;;16.00;14.60;;;;;;;21.44;31.00;96443.16;6160252;28;109975;-62
2023/12/18 14:07:50;;;;;;;16.30;14.80;;;;;;;21.43;30.45;96445.00;6154745;28;111252;-62